Time;durP1;ratioP1;P1;durP2;ratioP2;P2;SDS_P1;SDS_P2;PMS_P1;PMS_P2;Temp;Humidity;BMP_temperature;BMP_pressure;BME280_temperature;BME280_humidity;BME280_pressure;Samples;Min_cycle;Max_cycle;Signal;HPM_P1;HPM_P2
2021/07/19 00:01:29;;;;;;;10.32;4.97;;;20.90;99.90;;;;;;4191308;28;20078;-62
2021/07/19 00:03:30;;;;;;;8.70;5.38;;;20.90;99.90;;;;;;4189638;28;20032;-63
2021/07/19 00:05:31;;;;;;;7.97;5.80;;;21.00;99.90;;;;;;4191220;28;20516;-62
2021/07/19 00:07:32;;;;;;;10.13;5.50;;;21.00;99.90;;;;;;4190097;28;20020;-62
2021/07/19 00:09:34;;;;;;;10.70;5.57;;;21.10;99.90;;;;;;4190447;28;20037;-63
2021/07/19 00:11:36;;;;;;;10.18;6.07;;;21.10;99.90;;;;;;4190968;28;20033;-61
2021/07/19 00:13:37;;;;;;;12.15;5.15;;;21.10;99.90;;;;;;4190018;28;20082;-62
2021/07/19 00:15:39;;;;;;;7.57;5.15;;;21.10;99.90;;;;;;4190932;28;20052;-62
2021/07/19 00:17:41;;;;;;;8.07;5.20;;;21.10;99.90;;;;;;4188928;28;20090;-63
2021/07/19 00:19:43;;;;;;;9.00;5.22;;;21.10;99.90;;;;;;4190806;28;20481;-63
2021/07/19 00:21:44;;;;;;;5.55;4.78;;;21.10;99.90;;;;;;4188764;28;20579;-62
2021/07/19 00:23:46;;;;;;;7.22;4.95;;;21.10;99.90;;;;;;4191041;28;20036;-62
2021/07/19 00:25:48;;;;;;;5.57;5.03;;;21.10;99.90;;;;;;4189414;28;20081;-62
2021/07/19 00:27:53;;;;;;;6.32;4.78;;;21.10;99.90;;;;;;4191254;28;20986;-62
2021/07/19 00:29:54;;;;;;;7.32;5.30;;;21.10;99.90;;;;;;4189467;28;20430;-63
2021/07/19 00:31:55;;;;;;;14.05;6.47;;;21.10;99.90;;;;;;4191054;28;20078;-64
2021/07/19 00:33:56;;;;;;;8.73;5.57;;;21.10;99.90;;;;;;4189181;28;20561;-63
2021/07/19 00:35:58;;;;;;;8.48;5.55;;;21.10;99.90;;;;;;4190831;28;20053;-62
2021/07/19 00:37:59;;;;;;;8.48;5.40;;;21.00;99.90;;;;;;4188846;28;20029;-62
2021/07/19 00:40:04;;;;;;;10.15;5.38;;;21.00;99.90;;;;;;4190448;28;20122;-62
2021/07/19 00:42:05;;;;;;;7.18;5.45;;;20.90;99.90;;;;;;4189421;28;20078;-62
2021/07/19 00:44:07;;;;;;;8.15;5.82;;;20.90;99.90;;;;;;4189875;28;20029;-63
2021/07/19 00:46:08;;;;;;;7.57;5.60;;;20.90;99.90;;;;;;4189485;28;20129;-62
2021/07/19 00:48:09;;;;;;;9.98;5.93;;;20.80;99.90;;;;;;4189246;28;20086;-61
2021/07/19 00:50:11;;;;;;;6.85;5.32;;;20.80;99.90;;;;;;4190308;28;20538;-62
2021/07/19 00:52:12;;;;;;;7.22;5.35;;;20.80;99.90;;;;;;4189053;28;20936;-62
2021/07/19 00:54:17;;;;;;;6.55;5.32;;;20.80;99.90;;;;;;4190305;28;20435;-62
2021/07/19 00:56:21;;;;;;;6.90;5.65;;;20.80;99.90;;;;;;4188669;28;20446;-62
2021/07/19 00:58:28;;;;;;;10.10;6.78;;;20.70;99.90;;;;;;4190485;28;20032;-61
2021/07/19 01:00:31;;;;;;;7.07;5.85;;;20.70;99.90;;;;;;4189004;28;20036;-62
2021/07/19 01:02:34;;;;;;;7.63;5.63;;;20.70;99.90;;;;;;4189737;28;20028;-62
2021/07/19 01:04:36;;;;;;;10.95;6.50;;;20.70;99.90;;;;;;4188610;28;20044;-61
2021/07/19 01:06:38;;;;;;;7.50;6.00;;;20.60;99.90;;;;;;4190706;28;20467;-61
2021/07/19 01:08:41;;;;;;;8.43;6.03;;;20.60;99.90;;;;;;4188744;28;20054;-63
2021/07/19 01:10:42;;;;;;;9.27;5.95;;;20.60;99.90;;;;;;4190917;28;20415;-63
2021/07/19 01:12:45;;;;;;;8.05;6.22;;;20.50;99.90;;;;;;4188723;28;20036;-62
2021/07/19 01:14:46;;;;;;;11.55;6.03;;;20.50;99.90;;;;;;4189617;28;20045;-62
2021/07/19 01:16:47;;;;;;;9.40;5.90;;;20.50;99.90;;;;;;4188873;28;20040;-62
2021/07/19 01:18:49;;;;;;;11.30;6.53;;;20.50;99.90;;;;;;4188437;28;20071;-63
2021/07/19 01:21:02;;;;;;;8.48;6.35;;;20.50;99.90;;;;;;4189405;28;20546;-62
2021/07/19 01:23:31;;;;;;;11.45;6.95;;;20.50;99.90;;;;;;4189617;28;20079;-62
2021/07/19 01:25:58;;;;;;;11.00;8.05;;;20.40;99.90;;;;;;4188999;28;20032;-62
2021/07/19 01:28:28;;;;;;;9.65;6.68;;;20.30;99.90;;;;;;4187953;28;20040;-63
2021/07/19 01:30:30;;;;;;;11.93;7.25;;;20.20;99.90;;;;;;4187353;28;20747;-63
2021/07/19 01:32:38;;;;;;;8.25;6.40;;;20.20;99.90;;;;;;4188623;28;20032;-62
2021/07/19 01:34:42;;;;;;;9.35;6.95;;;20.30;99.90;;;;;;4188521;28;20044;-62
2021/07/19 01:36:48;;;;;;;9.25;6.95;;;20.30;99.90;;;;;;4190450;28;20044;-63
2021/07/19 01:38:49;;;;;;;8.57;6.50;;;20.30;99.90;;;;;;4188477;28;20060;-61
2021/07/19 01:40:52;;;;;;;8.63;5.47;;;20.30;99.90;;;;;;4190333;28;20123;-63
2021/07/19 01:42:56;;;;;;;6.57;5.40;;;20.40;99.90;;;;;;4188051;28;20040;-63
2021/07/19 01:45:00;;;;;;;7.38;6.05;;;20.40;99.90;;;;;;4189685;28;20051;-62
2021/07/19 01:47:02;;;;;;;10.50;7.45;;;20.40;99.90;;;;;;4188412;28;20058;-63
2021/07/19 01:49:05;;;;;;;9.50;7.80;;;20.30;99.90;;;;;;4189790;28;20093;-63
2021/07/19 01:51:07;;;;;;;11.35;7.85;;;20.10;99.90;;;;;;4188578;28;20024;-63
2021/07/19 01:53:09;;;;;;;15.63;8.32;;;20.00;99.90;;;;;;4188774;28;20066;-62
2021/07/19 01:55:11;;;;;;;11.88;8.73;;;19.80;99.90;;;;;;4189431;28;20097;-62
2021/07/19 01:57:13;;;;;;;12.43;8.07;;;19.70;99.90;;;;;;4188276;28;20045;-63
2021/07/19 01:59:15;;;;;;;15.48;8.38;;;19.60;99.90;;;;;;4190113;28;20044;-62
2021/07/19 02:01:17;;;;;;;9.02;7.82;;;19.50;99.90;;;;;;4188078;28;20443;-63
2021/07/19 02:03:18;;;;;;;11.15;8.32;;;19.50;99.90;;;;;;4190093;28;20066;-62
2021/07/19 02:05:24;;;;;;;18.63;8.38;;;19.50;99.90;;;;;;4187786;28;20447;-61
2021/07/19 02:07:27;;;;;;;12.35;8.32;;;19.50;99.90;;;;;;4190058;28;20420;-62
2021/07/19 02:09:29;;;;;;;14.77;9.00;;;19.50;99.90;;;;;;4187925;28;20074;-62
2021/07/19 02:11:32;;;;;;;14.30;10.27;;;19.40;99.90;;;;;;4190026;28;20048;-63
2021/07/19 02:13:36;;;;;;;16.92;9.85;;;19.50;99.90;;;;;;4188501;28;20905;-65
2021/07/19 02:15:40;;;;;;;13.73;10.13;;;19.50;99.90;;;;;;4190084;28;20032;-63
2021/07/19 02:17:47;;;;;;;11.70;8.40;;;19.40;99.90;;;;;;4188077;28;20078;-63
2021/07/19 02:19:51;;;;;;;12.00;8.82;;;19.40;99.90;;;;;;4190210;28;20044;-63
2021/07/19 02:21:53;;;;;;;14.60;9.00;;;19.40;99.90;;;;;;4187878;28;20078;-63
2021/07/19 02:23:55;;;;;;;11.07;9.43;;;19.50;99.90;;;;;;4189235;28;20037;-63
2021/07/19 02:25:57;;;;;;;10.02;8.93;;;19.50;99.90;;;;;;4188338;28;20028;-63
2021/07/19 02:28:00;;;;;;;13.65;8.77;;;19.50;99.90;;;;;;4189135;28;20772;-63
2021/07/19 02:30:01;;;;;;;11.18;8.40;;;19.60;99.90;;;;;;4188394;28;20399;-63
2021/07/19 02:32:03;;;;;;;11.98;7.78;;;19.60;99.90;;;;;;4188936;28;20098;-63
2021/07/19 02:34:05;;;;;;;14.13;8.63;;;19.60;99.90;;;;;;4188947;28;20563;-63
2021/07/19 02:36:09;;;;;;;10.30;7.70;;;19.70;99.90;;;;;;4187747;28;20048;-63
2021/07/19 02:38:11;;;;;;;16.27;8.40;;;19.70;99.90;;;;;;4189137;28;20357;-62
2021/07/19 02:40:16;;;;;;;15.60;7.90;;;19.70;99.90;;;;;;4187976;28;20114;-62
2021/07/19 02:42:17;;;;;;;15.65;7.90;;;19.70;99.90;;;;;;4191807;28;20589;-63
2021/07/19 02:44:18;;;;;;;14.20;7.68;;;19.70;99.90;;;;;;4190867;28;20040;-63
2021/07/19 02:46:24;;;;;;;15.30;7.68;;;19.70;99.90;;;;;;4192385;28;20090;-63
2021/07/19 02:48:29;;;;;;;11.75;7.38;;;19.70;99.90;;;;;;4191092;28;20513;-63
2021/07/19 02:50:31;;;;;;;8.10;7.07;;;19.80;99.90;;;;;;4192393;28;20093;-62
2021/07/19 02:52:35;;;;;;;7.88;6.47;;;19.70;99.90;;;;;;4190314;28;20048;-62
2021/07/19 02:54:38;;;;;;;12.68;7.07;;;19.80;99.90;;;;;;4192349;28;20025;-64
2021/07/19 02:56:41;;;;;;;9.80;7.38;;;19.80;99.90;;;;;;4190614;28;20481;-63
2021/07/19 02:58:42;;;;;;;13.15;6.93;;;19.80;99.90;;;;;;4192636;28;20048;-62
2021/07/19 03:00:45;;;;;;;10.50;6.90;;;19.80;99.90;;;;;;4190681;28;20544;-62
2021/07/19 03:02:58;;;;;;;13.15;8.20;;;19.90;99.90;;;;;;4191859;28;20097;-63
2021/07/19 03:05:01;;;;;;;10.05;7.70;;;19.90;99.90;;;;;;4190773;28;20040;-63
2021/07/19 03:07:05;;;;;;;9.98;7.85;;;19.90;99.90;;;;;;4191601;28;20101;-66
2021/07/19 03:09:08;;;;;;;13.35;8.18;;;19.80;99.90;;;;;;4190488;28;20094;-62
2021/07/19 03:11:32;;;;;;;8.88;7.32;;;19.80;99.90;;;;;;4190501;28;20074;-64
2021/07/19 03:13:35;;;;;;;9.60;6.90;;;19.90;99.90;;;;;;4187387;28;20106;-64
2021/07/19 03:15:39;;;;;;;12.93;7.13;;;19.90;99.90;;;;;;4191623;28;20062;-63
2021/07/19 03:17:41;;;;;;;12.10;7.35;;;19.90;99.90;;;;;;4190532;28;20028;-63
2021/07/19 03:19:44;;;;;;;14.40;7.55;;;19.90;99.90;;;;;;4191525;28;20037;-64
2021/07/19 03:21:46;;;;;;;11.13;7.28;;;19.90;99.90;;;;;;4190980;28;20033;-64
2021/07/19 03:23:51;;;;;;;9.95;7.10;;;19.90;99.90;;;;;;4190501;28;20033;-64
2021/07/19 03:25:53;;;;;;;9.88;7.30;;;19.90;99.90;;;;;;4191969;28;20049;-63
2021/07/19 03:27:55;;;;;;;11.98;7.43;;;19.90;99.90;;;;;;4190298;28;20024;-63
2021/07/19 03:29:58;;;;;;;8.73;7.00;;;20.00;99.90;;;;;;4192089;28;20028;-60
2021/07/19 03:32:00;;;;;;;10.27;7.43;;;20.10;99.90;;;;;;4190667;28;20744;-62
2021/07/19 03:34:05;;;;;;;14.38;7.03;;;20.10;99.90;;;;;;4191958;28;20103;-62
2021/07/19 03:36:07;;;;;;;17.10;7.18;;;20.10;99.90;;;;;;4189758;28;20044;-61
2021/07/19 03:38:12;;;;;;;15.52;7.03;;;20.20;99.90;;;;;;4191410;28;20032;-61
2021/07/19 03:40:16;;;;;;;15.85;7.28;;;20.20;99.90;;;;;;4189996;28;20060;-62
2021/07/19 03:42:18;;;;;;;13.90;6.47;;;20.30;99.90;;;;;;4192023;28;20033;-62
2021/07/19 03:44:21;;;;;;;11.63;6.75;;;20.50;99.90;;;;;;4190070;28;20610;-63
2021/07/19 03:46:22;;;;;;;10.05;6.38;;;20.70;99.90;;;;;;4191693;28;20028;-63
2021/07/19 03:48:24;;;;;;;9.23;6.55;;;20.90;99.90;;;;;;4190077;28;20078;-63
2021/07/19 03:50:26;;;;;;;11.52;6.93;;;21.00;99.90;;;;;;4191435;28;20040;-63
2021/07/19 03:52:28;;;;;;;6.72;5.90;;;21.20;99.90;;;;;;4189253;28;20055;-63
2021/07/19 03:54:29;;;;;;;14.93;6.82;;;21.30;99.90;;;;;;4191007;28;20082;-63
2021/07/19 03:56:31;;;;;;;9.88;6.47;;;21.40;99.90;;;;;;4190387;28;20101;-62
2021/07/19 03:58:33;;;;;;;10.50;7.22;;;21.70;99.90;;;;;;4190135;28;20077;-63
2021/07/19 04:00:35;;;;;;;9.20;5.28;;;21.80;99.90;;;;;;4190608;28;20020;-63
2021/07/19 04:02:37;;;;;;;7.63;5.65;;;21.90;99.90;;;;;;4188942;28;20101;-62
2021/07/19 04:04:45;;;;;;;9.80;5.70;;;22.10;99.90;;;;;;4190807;28;20029;-63
2021/07/19 04:06:47;;;;;;;12.23;6.88;;;22.20;99.90;;;;;;4189162;28;20734;-63
2021/07/19 04:08:50;;;;;;;9.38;6.13;;;22.20;99.90;;;;;;4190973;28;20028;-62
2021/07/19 04:10:51;;;;;;;14.77;6.78;;;22.10;99.90;;;;;;4189385;28;20033;-62
2021/07/19 04:12:53;;;;;;;13.57;7.00;;;22.20;99.90;;;;;;4189756;28;20154;-63
2021/07/19 04:14:54;;;;;;;19.00;7.47;;;22.20;99.90;;;;;;4189137;28;20093;-63
2021/07/19 04:16:56;;;;;;;21.38;8.50;;;22.20;99.90;;;;;;4191105;28;20048;-63
2021/07/19 04:18:57;;;;;;;27.60;8.43;;;22.10;99.90;;;;;;4189197;28;20028;-63
2021/07/19 04:20:59;;;;;;;22.85;7.38;;;22.10;99.90;;;;;;4190513;28;20028;-63
2021/07/19 04:23:00;;;;;;;17.17;6.75;;;22.00;99.90;;;;;;4188141;28;20070;-63
2021/07/19 04:25:08;;;;;;;17.25;6.50;;;22.00;99.90;;;;;;4190457;28;20051;-63
2021/07/19 04:27:13;;;;;;;10.75;5.82;;;21.90;99.90;;;;;;4189096;28;20097;-62
2021/07/19 04:29:14;;;;;;;10.68;6.20;;;21.80;99.90;;;;;;4190252;28;20094;-62
2021/07/19 04:31:17;;;;;;;10.65;6.60;;;21.80;99.90;;;;;;4189138;28;20043;-63
2021/07/19 04:33:19;;;;;;;16.95;6.40;;;21.80;99.90;;;;;;4189671;28;20018;-62
2021/07/19 04:35:21;;;;;;;10.93;5.72;;;21.90;99.90;;;;;;4189470;28;20085;-64
2021/07/19 04:37:22;;;;;;;11.10;5.38;;;22.00;99.90;;;;;;4189276;28;20098;-63
2021/07/19 04:39:23;;;;;;;10.93;5.40;;;22.30;99.90;;;;;;4189647;28;20041;-63
2021/07/19 04:41:24;;;;;;;10.70;6.45;;;22.50;99.90;;;;;;4189045;28;20540;-63
2021/07/19 04:43:27;;;;;;;10.52;5.32;;;22.70;99.90;;;;;;4189956;28;20036;-64
2021/07/19 04:45:28;;;;;;;13.00;6.15;;;;;;;;;;4188775;28;20025;-63
2021/07/19 04:47:30;;;;;;;10.80;6.75;;;;;;;;;;4190360;28;20024;-63
2021/07/19 04:49:31;;;;;;;8.88;5.28;;;;;;;;;;4188433;28;20036;-63
2021/07/19 04:51:33;;;;;;;10.30;5.88;;;;;;;;;;4189764;28;20362;-64
2021/07/19 04:53:34;;;;;;;12.30;6.22;;;;;;;;;;4188596;28;20167;-63
2021/07/19 04:55:37;;;;;;;9.55;6.18;;;;;;;;;;4190248;28;20036;-63
2021/07/19 04:57:40;;;;;;;11.82;5.63;;;;;;;;;;4188797;28;20169;-63
2021/07/19 04:59:46;;;;;;;10.15;6.30;;;;;;;;;;4190260;28;20041;-63
2021/07/19 05:01:50;;;;;;;8.57;5.43;;;;;;;;;;4188347;28;20086;-63
2021/07/19 05:03:54;;;;;;;11.50;5.00;;;;;;;;;;4189649;28;20064;-63
2021/07/19 05:05:56;;;;;;;8.02;5.40;;;;;;;;;;4187870;28;20044;-63
2021/07/19 05:07:58;;;;;;;21.45;7.10;;;;;;;;;;4189480;28;20427;-63
2021/07/19 05:10:01;;;;;;;92.15;22.98;;;;;;;;;;4188843;28;20094;-63
2021/07/19 05:12:03;;;;;;;13.35;5.90;;;;;;;;;;4189039;28;20038;-63
2021/07/19 05:14:04;;;;;;;11.23;6.22;;;;;;;;;;4189206;28;20145;-63
2021/07/19 05:16:06;;;;;;;11.68;6.45;;;;;;;;;;4188308;28;20094;-63
2021/07/19 05:18:08;;;;;;;16.88;6.78;;;;;;;;;;4189860;28;20030;-63
2021/07/19 05:20:13;;;;;;;15.80;10.30;;;;;;;;;;4188449;28;21037;-63
2021/07/19 05:22:15;;;;;;;7.40;5.13;;;;;;;;;;4190091;28;20044;-63
2021/07/19 05:24:17;;;;;;;12.77;6.95;;;;;;;;;;4188123;28;20037;-63
2021/07/19 05:26:18;;;;;;;9.32;4.70;;;;;;;;;;4189587;28;20492;-63
2021/07/19 05:28:20;;;;;;;8.98;5.05;;;;;;;;;;4187883;28;20036;-63
2021/07/19 05:30:21;;;;;;;6.80;4.68;;;;;;;;;;4190031;28;20036;-63
2021/07/19 05:32:22;;;;;;;9.75;5.15;;;;;;;;;;4188223;28;20036;-63
2021/07/19 05:34:24;;;;;;;6.20;4.97;;;;;;;;;;4189724;28;20032;-63
2021/07/19 05:36:25;;;;;;;14.05;4.72;;;;;;;;;;4187925;28;20841;-63
2021/07/19 05:38:28;;;;;;;9.70;5.22;;;;;;;;;;4189654;28;20029;-64
2021/07/19 05:40:31;;;;;;;7.38;4.53;;;;;;;;;;4188071;28;20052;-62
2021/07/19 05:42:32;;;;;;;8.98;4.30;;;;;;;;;;4188885;28;20029;-63
2021/07/19 05:44:34;;;;;;;6.80;4.88;;;;;;;;;;4188698;28;20028;-63
2021/07/19 05:46:35;;;;;;;7.13;5.05;;;;;;;;;;4188641;28;20570;-63
2021/07/19 05:48:37;;;;;;;6.35;4.25;;;;;;;;;;4189371;28;20025;-63
2021/07/19 05:50:38;;;;;;;9.07;4.63;;;;;;;;;;4188127;28;20032;-63
2021/07/19 05:52:40;;;;;;;6.32;3.97;;;;;;;;;;4188665;28;20599;-64
2021/07/19 05:54:41;;;;;;;10.10;4.22;;;;;;;;;;4187018;28;20466;-64
2021/07/19 05:56:42;;;;;;;11.40;4.10;;;;;;;;;;4188871;28;20098;-64
2021/07/19 05:58:44;;;;;;;9.88;4.47;;;;;;;;;;4186167;28;20036;-63
2021/07/19 06:00:46;;;;;;;8.68;4.80;;;;;;;;;;4189513;28;20028;-64
2021/07/19 06:02:47;;;;;;;6.05;3.85;;;;;;;;;;4188075;28;20063;-63
2021/07/19 06:04:48;;;;;;;5.18;3.67;;;;;;;;;;4189146;28;20102;-63
2021/07/19 06:06:50;;;;;;;11.63;4.30;;;;;;;;;;4188143;28;20032;-63
2021/07/19 06:08:51;;;;;;;9.80;4.38;;;;;;;;;;4189037;28;20080;-63
2021/07/19 06:10:53;;;;;;;6.10;3.75;;;;;;;;;;4187899;28;20032;-62
2021/07/19 06:12:54;;;;;;;9.45;4.40;;;;;;;;;;4189211;28;20431;-63
2021/07/19 06:14:55;;;;;;;7.43;4.20;;;;;;;;;;4188802;28;20041;-63
2021/07/19 06:16:57;;;;;;;10.68;4.60;;;;;;;;;;4190325;28;20033;-62
2021/07/19 06:18:58;;;;;;;8.38;4.35;;;;;;;;;;4192036;28;20044;-61
2021/07/19 06:21:00;;;;;;;7.93;4.00;;;;;;;;;;4190903;28;20086;-61
2021/07/19 06:23:02;;;;;;;7.57;3.97;;;;;;;;;;4192233;28;20074;-61
2021/07/19 06:25:05;;;;;;;7.13;3.67;;;;;;;;;;4190897;28;20086;-61
2021/07/19 06:27:07;;;;;;;8.32;4.82;;;;;;;;;;4192201;28;20903;-64
2021/07/19 06:29:08;;;;;;;7.80;3.97;;;23.10;99.90;;;;;;4190573;28;20020;-61
2021/07/19 06:31:11;;;;;;;12.65;4.55;;;30.00;99.20;;;;;;4191939;28;20422;-62
2021/07/19 06:33:12;;;;;;;8.55;4.80;;;30.10;98.60;;;;;;4190905;28;20086;-61
2021/07/19 06:35:13;;;;;;;5.50;3.95;;;30.20;98.30;;;;;;4192492;28;20100;-63
2021/07/19 06:37:14;;;;;;;7.43;4.82;;;30.20;98.10;;;;;;4190493;28;20094;-63
2021/07/19 06:39:16;;;;;;;14.02;4.95;;;30.20;98.00;;;;;;4190823;28;20048;-61
2021/07/19 06:41:17;;;;;;;7.72;3.92;;;30.30;97.70;;;;;;4191011;28;20102;-62
2021/07/19 06:43:18;;;;;;;7.20;3.97;;;30.40;97.40;;;;;;4191987;28;20375;-64
2021/07/19 06:45:19;;;;;;;11.35;4.70;;;30.60;97.30;;;;;;4190841;28;20044;-62
2021/07/19 06:47:21;;;;;;;7.13;4.18;;;30.70;97.00;;;;;;4191349;28;20435;-64
2021/07/19 06:49:23;;;;;;;4.82;4.43;;;30.70;96.80;;;;;;4191069;28;20087;-63
2021/07/19 06:51:25;;;;;;;7.82;4.55;;;30.60;96.50;;;;;;4190837;28;20032;-63
2021/07/19 06:53:27;;;;;;;7.28;4.35;;;30.70;96.50;;;;;;4191646;28;20067;-62
2021/07/19 06:55:29;;;;;;;13.73;4.93;;;30.70;96.20;;;;;;4190964;28;20990;-61
2021/07/19 06:57:30;;;;;;;8.20;4.25;;;30.70;96.10;;;;;;4191657;28;20052;-63
2021/07/19 06:59:31;;;;;;;9.30;4.53;;;30.80;95.90;;;;;;4190586;28;20105;-62
2021/07/19 07:01:33;;;;;;;5.57;4.00;;;31.10;95.50;;;;;;4191983;28;20791;-62
2021/07/19 07:03:34;;;;;;;6.53;4.45;;;31.50;95.20;;;;;;4190472;28;20097;-63
2021/07/19 07:05:35;;;;;;;7.85;4.25;;;31.60;94.80;;;;;;4192131;28;20432;-62
2021/07/19 07:07:37;;;;;;;9.15;4.70;;;31.70;94.70;;;;;;4188557;28;20090;-63
2021/07/19 07:09:38;;;;;;;5.35;4.32;;;31.70;94.20;;;;;;4191651;28;20028;-61
2021/07/19 07:11:40;;;;;;;8.45;4.47;;;31.60;94.20;;;;;;4190843;28;20106;-63
2021/07/19 07:13:41;;;;;;;8.65;4.57;;;31.60;94.30;;;;;;4191623;28;20378;-62
2021/07/19 07:15:42;;;;;;;5.95;4.10;;;31.40;94.30;;;;;;4189825;28;20457;-61
2021/07/19 07:17:43;;;;;;;10.85;4.60;;;31.20;94.50;;;;;;4190989;28;20044;-62
2021/07/19 07:19:44;;;;;;;8.13;4.45;;;30.90;94.50;;;;;;4190775;28;20094;-62
2021/07/19 07:21:45;;;;;;;9.70;4.47;;;30.70;94.90;;;;;;4190927;28;20074;-62
2021/07/19 07:23:47;;;;;;;6.85;4.28;;;30.70;95.20;;;;;;4190805;28;20041;-61
2021/07/19 07:25:48;;;;;;;5.82;4.68;;;30.80;95.20;;;;;;4190251;28;20090;-61
2021/07/19 07:27:49;;;;;;;7.30;4.47;;;31.00;95.00;;;;;;4190005;28;20090;-61
2021/07/19 07:29:51;;;;;;;6.63;4.65;;;31.00;94.90;;;;;;4189830;28;20036;-62
2021/07/19 07:31:52;;;;;;;8.13;4.65;;;31.10;94.90;;;;;;4191489;28;20044;-62
2021/07/19 07:33:55;;;;;;;9.13;4.72;;;31.10;94.70;;;;;;4189495;28;20162;-62
2021/07/19 07:35:56;;;;;;;8.73;5.00;;;31.20;94.60;;;;;;4191048;28;20086;-61
2021/07/19 07:37:57;;;;;;;12.52;5.70;;;31.10;94.70;;;;;;4189545;28;20346;-62
2021/07/19 07:40:00;;;;;;;7.38;4.40;;;31.20;94.70;;;;;;4191357;28;20082;-62
2021/07/19 07:42:01;;;;;;;11.45;5.10;;;31.20;94.60;;;;;;4189980;28;20098;-63
2021/07/19 07:44:02;;;;;;;6.53;4.90;;;31.10;94.40;;;;;;4191373;28;20037;-62
2021/07/19 07:46:04;;;;;;;5.90;5.30;;;31.20;94.50;;;;;;4189717;28;20037;-62
2021/07/19 07:48:05;;;;;;;12.57;4.78;;;31.00;94.60;;;;;;4191068;28;20076;-62
2021/07/19 07:50:07;;;;;;;7.90;4.70;;;31.00;94.70;;;;;;4190146;28;20028;-63
2021/07/19 07:52:10;;;;;;;6.97;4.93;;;31.00;94.50;;;;;;4190544;28;20066;-63
2021/07/19 07:54:11;;;;;;;7.65;4.50;;;31.00;94.60;;;;;;4190188;28;20032;-62
2021/07/19 07:56:13;;;;;;;10.27;5.32;;;;;;;;;;4189324;28;20528;-62
2021/07/19 07:58:14;;;;;;;7.97;5.20;;;;;;;;;;4190847;28;20040;-66
2021/07/19 08:00:17;;;;;;;7.35;4.65;;;;;;;;;;4189274;28;20040;-63
2021/07/19 08:02:19;;;;;;;8.45;4.88;;;;;;;;;;4190564;28;20025;-62
2021/07/19 08:04:20;;;;;;;11.93;5.07;;;;;;;;;;4189220;28;20117;-63
2021/07/19 08:06:23;;;;;;;10.63;5.70;;;;;;;;;;4190765;28;20028;-63
2021/07/19 08:08:24;;;;;;;10.35;5.13;;;;;;;;;;4189119;28;20033;-62
2021/07/19 08:10:26;;;;;;;9.77;5.57;;;;;;;;;;4190831;28;20093;-63
2021/07/19 08:12:27;;;;;;;9.05;5.57;;;;;;;;;;4187794;28;20142;-63
2021/07/19 08:14:29;;;;;;;7.57;5.88;;;;;;;;;;4190674;28;20037;-63
2021/07/19 08:16:30;;;;;;;7.90;6.10;;;;;;;;;;4188886;28;20572;-63
2021/07/19 08:18:32;;;;;;;7.63;6.05;;;;;;;;;;4190846;28;20029;-63
2021/07/19 08:20:33;;;;;;;7.35;5.13;;;;;;;;;;4189293;28;20090;-62
2021/07/19 08:22:34;;;;;;;12.55;5.47;;;;;;;;;;4190126;28;20033;-62
2021/07/19 08:24:36;;;;;;;6.57;5.07;;;;;;;;;;4189849;28;20028;-62
2021/07/19 08:26:38;;;;;;;10.20;5.82;;;;;;;;;;4189233;28;20029;-62
2021/07/19 08:28:39;;;;;;;14.32;5.55;;;;;;;;;;4189626;28;20036;-63
2021/07/19 08:30:41;;;;;;;10.20;5.32;;;;;;;;;;4189315;28;20016;-63
2021/07/19 08:32:42;;;;;;;13.15;5.82;;;;;;;;;;4190261;28;20105;-62
2021/07/19 08:34:45;;;;;;;15.65;6.47;;;;;;;;;;4188594;28;20078;-63
2021/07/19 08:36:46;;;;;;;5.88;4.90;;;;;;;;;;4189224;28;20094;-63
2021/07/19 08:38:48;;;;;;;12.60;5.45;;;;;;;;;;4188530;28;20106;-64
2021/07/19 08:40:50;;;;;;;12.05;6.28;;;;;;;;;;4190436;28;20803;-63
2021/07/19 08:42:52;;;;;;;16.60;6.35;;;;;;;;;;4188855;28;20032;-64
2021/07/19 08:44:54;;;;;;;13.35;6.18;;;;;;;;;;4190219;28;20091;-63
2021/07/19 08:46:55;;;;;;;8.63;5.15;;;;;;;;;;4188920;28;20040;-63
2021/07/19 08:48:57;;;;;;;10.85;5.47;;;;;;;;;;4189878;28;20032;-64
2021/07/19 08:51:02;;;;;;;7.85;5.70;;;;;;;;;;4188528;28;20094;-63
2021/07/19 08:53:03;;;;;;;7.38;5.30;;;;;;;;;;4189708;28;20451;-63
2021/07/19 08:55:06;;;;;;;11.00;5.90;;;;;;;;;;4188903;28;20041;-63
2021/07/19 08:57:07;;;;;;;6.78;5.03;;;;;;;;;;4189052;28;20102;-62
2021/07/19 08:59:09;;;;;;;8.48;5.68;;;;;;;;;;4189083;28;20063;-63
2021/07/19 09:01:11;;;;;;;13.10;5.20;;;;;;;;;;4188906;28;20110;-62
2021/07/19 09:03:13;;;;;;;11.32;5.38;;;;;;;;;;4188702;28;20083;-62
2021/07/19 09:05:15;;;;;;;10.00;5.68;;;;;;;;;;4189090;28;20485;-64
2021/07/19 09:07:17;;;;;;;10.80;6.57;;;;;;;;;;4189215;28;20113;-63
2021/07/19 09:09:32;;;;;;;11.00;6.78;;;;;;;;;;4188156;28;20029;-63
2021/07/19 09:11:33;;;;;;;8.02;5.75;;;;;;;;;;4190205;28;20032;-63
2021/07/19 09:13:34;;;;;;;10.50;6.25;;;;;;;;;;4188205;28;20075;-63
2021/07/19 09:15:37;;;;;;;6.60;5.75;;;;;;;;;;4189719;28;20028;-62
2021/07/19 09:17:39;;;;;;;6.32;5.35;;;;;;;;;;4188148;28;20402;-64
2021/07/19 09:19:43;;;;;;;12.20;6.15;;;;;;;;;;4190173;28;20097;-64
2021/07/19 09:21:46;;;;;;;16.50;6.88;;;;;;;;;;4188007;28;20028;-63
2021/07/19 09:23:47;;;;;;;9.70;5.97;;;30.60;94.60;;;;;;4189540;28;20033;-62
2021/07/19 09:25:49;;;;;;;14.00;5.90;;;31.10;94.90;;;;;;4188100;28;20090;-62
2021/07/19 09:28:04;;;;;;;9.80;6.45;;;31.10;95.00;;;;;;4189530;28;20122;-62
2021/07/19 09:30:14;;;;;;;6.50;5.40;;;31.00;95.20;;;;;;4188212;28;20048;-62
2021/07/19 09:32:15;;;;;;;7.18;5.88;;;30.90;95.00;;;;;;4189578;28;20041;-63
2021/07/19 09:34:22;;;;;;;8.50;5.85;;;31.10;95.10;;;;;;4188146;28;20029;-63
2021/07/19 09:36:24;;;;;;;15.50;6.97;;;31.30;94.90;;;;;;4189291;28;20343;-63
2021/07/19 09:38:29;;;;;;;9.65;5.18;;;31.30;94.70;;;;;;4188059;28;20052;-64
2021/07/19 09:40:32;;;;;;;11.27;5.78;;;31.40;94.70;;;;;;4189504;28;20173;-64
2021/07/19 09:42:41;;;;;;;10.50;6.18;;;31.40;94.50;;;;;;4188556;28;20036;-64
2021/07/19 09:44:58;;;;;;;11.40;6.07;;;31.30;94.50;;;;;;4189174;28;20089;-63
2021/07/19 09:47:01;;;;;;;7.03;5.53;;;31.10;94.60;;;;;;4186830;28;20303;-63
2021/07/19 09:49:04;;;;;;;10.40;5.15;;;31.10;94.60;;;;;;4188655;28;20420;-63
2021/07/19 09:51:05;;;;;;;6.50;5.07;;;31.10;94.70;;;;;;4190205;28;20473;-63
2021/07/19 09:53:06;;;;;;;7.95;5.10;;;31.00;94.70;;;;;;4194082;28;20082;-62
2021/07/19 09:55:28;;;;;;;9.40;6.15;;;31.20;94.80;;;;;;4194122;28;20094;-63
2021/07/19 09:57:29;;;;;;;11.02;5.57;;;31.30;94.80;;;;;;4192410;28;20126;-64
2021/07/19 09:59:31;;;;;;;9.85;5.15;;;31.30;94.60;;;;;;4194352;28;20024;-63
2021/07/19 10:01:35;;;;;;;9.15;5.95;;;31.20;94.60;;;;;;4193569;28;20553;-63
2021/07/19 10:03:36;;;;;;;8.57;6.10;;;31.10;94.60;;;;;;4194589;28;20028;-63
2021/07/19 10:05:38;;;;;;;8.32;5.57;;;31.00;94.60;;;;;;4193844;28;20041;-63
2021/07/19 10:07:47;;;;;;;10.02;5.75;;;31.00;94.50;;;;;;4194971;28;20033;-63
2021/07/19 10:09:48;;;;;;;;;;;30.80;94.20;;;;;;4193688;28;20036;-62
2021/07/19 10:11:53;;;;;;;8.75;5.68;;;30.90;94.40;;;;;;4195477;28;19974;-63
2021/07/19 10:13:55;;;;;;;7.10;5.03;;;31.00;94.10;;;;;;4193397;28;20028;-65
2021/07/19 10:15:56;;;;;;;9.25;4.82;;;31.20;94.00;;;;;;4194833;28;20032;-62
2021/07/19 10:18:01;;;;;;;6.95;5.78;;;31.30;93.60;;;;;;4193324;28;20197;-63
2021/07/19 10:20:05;;;;;;;12.77;5.68;;;31.40;93.40;;;;;;4194364;28;20070;-63
2021/07/19 10:22:06;;;;;;;9.50;5.68;;;31.30;93.70;;;;;;4192883;28;20050;-64
2021/07/19 10:24:09;;;;;;;8.55;5.30;;;31.30;93.90;;;;;;4194692;28;20431;-64
2021/07/19 10:26:11;;;;;;;10.13;5.70;;;31.10;94.20;;;;;;4192964;28;20774;-62
2021/07/19 10:28:14;;;;;;;7.55;5.00;;;30.90;94.60;;;;;;4194181;28;20114;-65
2021/07/19 10:30:16;;;;;;;7.13;5.25;;;30.60;94.90;;;;;;4193655;28;20048;-63
2021/07/19 10:32:22;;;;;;;9.23;5.22;;;30.50;95.30;;;;;;4193756;28;20029;-64
2021/07/19 10:34:24;;;;;;;15.52;6.85;;;30.30;95.30;;;;;;4193273;28;20093;-63
2021/07/19 10:36:34;;;;;;;6.00;4.97;;;30.30;95.40;;;;;;4193372;28;20066;-63
2021/07/19 10:38:35;;;;;;;10.50;5.30;;;30.30;95.40;;;;;;4193495;28;20086;-63
2021/07/19 10:40:40;;;;;;;10.45;5.70;;;30.30;95.20;;;;;;4191898;28;20082;-64
2021/07/19 10:42:47;;;;;;;10.18;5.65;;;30.20;95.30;;;;;;4194198;28;20081;-62
2021/07/19 10:44:49;;;;;;;9.88;6.10;;;30.20;95.30;;;;;;4193323;28;20094;-62
2021/07/19 10:46:50;;;;;;;8.35;5.40;;;30.30;95.10;;;;;;4194587;28;20366;-61
2021/07/19 10:49:05;;;;;;;6.38;5.25;;;30.40;95.00;;;;;;4193165;28;20106;-62
2021/07/19 10:51:18;;;;;;;8.52;5.57;;;30.60;94.70;;;;;;4194500;28;20888;-61
2021/07/19 10:53:21;;;;;;;9.77;7.03;;;30.60;94.50;;;;;;4193125;28;20604;-62
2021/07/19 10:55:31;;;;;;;10.90;6.32;;;30.30;94.60;;;;;;4194582;28;20024;-61
2021/07/19 10:57:40;;;;;;;8.32;6.07;;;30.40;94.80;;;;;;4193145;28;20454;-63
2021/07/19 11:00:00;;;;;;;11.70;6.35;;;30.30;94.70;;;;;;4194276;28;20036;-62
2021/07/19 11:02:01;;;;;;;11.10;5.93;;;30.30;94.80;;;;;;4192357;28;20024;-62